Time;durP1;ratioP1;P1;durP2;ratioP2;P2;SDS_P1;SDS_P2;PMS_P1;PMS_P2;Temp;Humidity;BMP_temperature;BMP_pressure;BME280_temperature;BME280_humidity;BME280_pressure;Samples;Min_cycle;Max_cycle;Signal;HPM_P1;HPM_P2
2023/06/13 00:01:24;;;;;;;8.38;5.45;;;21.10;49.50;;;;;;5093021;28;20044;-70
2023/06/13 00:03:53;;;;;;;9.23;5.30;;;21.00;49.40;;;;;;5072495;28;20533;-70
2023/06/13 00:06:19;;;;;;;6.47;5.47;;;21.00;49.50;;;;;;5084509;28;20051;-71
2023/06/13 00:08:45;;;;;;;7.68;5.40;;;20.90;49.50;;;;;;5091077;27;20048;-70
2023/06/13 00:11:10;;;;;;;7.68;5.32;;;20.90;49.60;;;;;;5090977;28;20388;-72
2023/06/13 00:13:40;;;;;;;7.28;5.35;;;20.80;49.60;;;;;;5089373;28;20046;-71
2023/06/13 00:16:06;;;;;;;11.48;5.63;;;20.80;49.80;;;;;;5082183;28;20074;-70
2023/06/13 00:18:32;;;;;;;8.43;5.55;;;20.80;49.70;;;;;;5092592;28;20795;-71
2023/06/13 00:20:58;;;;;;;7.47;5.65;;;20.70;49.70;;;;;;5070541;28;20043;-71
2023/06/13 00:23:26;;;;;;;8.00;5.80;;;20.70;49.90;;;;;;5066002;28;20048;-71
2023/06/13 00:25:53;;;;;;;9.20;5.45;;;20.70;50.10;;;;;;5067451;28;21097;-71
2023/06/13 00:28:19;;;;;;;10.25;5.95;;;20.60;50.20;;;;;;5063990;28;20082;-72
2023/06/13 00:30:45;;;;;;;7.20;5.55;;;20.60;50.20;;;;;;5068111;28;21298;-71
2023/06/13 00:33:16;;;;;;;7.95;5.38;;;20.60;50.40;;;;;;5105579;27;20127;-71
2023/06/13 00:35:43;;;;;;;9.15;6.13;;;20.50;50.60;;;;;;5092562;28;20044;-72
2023/06/13 00:38:08;;;;;;;8.23;5.90;;;20.50;50.80;;;;;;5074486;28;20070;-72
2023/06/13 00:40:35;;;;;;;10.00;6.18;;;20.50;50.70;;;;;;5087438;28;20530;-71
2023/06/13 00:43:01;;;;;;;8.70;5.72;;;20.50;51.30;;;;;;5058530;28;20048;-70
2023/06/13 00:45:28;;;;;;;9.27;6.10;;;20.50;50.70;;;;;;5078620;28;20044;-72
2023/06/13 00:47:59;;;;;;;7.65;6.15;;;20.40;50.90;;;;;;5098610;27;20040;-71
2023/06/13 00:50:33;;;;;;;8.10;6.20;;;20.40;51.10;;;;;;5091373;28;20510;-72
2023/06/13 00:53:16;;;;;;;9.60;6.35;;;20.30;51.10;;;;;;5073866;28;20093;-70
2023/06/13 00:55:42;;;;;;;10.13;6.25;;;20.30;51.20;;;;;;5068868;28;20044;-70
2023/06/13 00:58:10;;;;;;;10.83;6.63;;;20.20;51.30;;;;;;5091418;28;20052;-71
2023/06/13 01:00:37;;;;;;;9.15;6.75;;;20.20;51.40;;;;;;5091645;28;20088;-71
2023/06/13 01:03:07;;;;;;;;;;;20.10;51.60;;;;;;5085959;28;20090;-70
2023/06/13 01:05:33;;;;;;;9.23;6.75;;;20.10;52.00;;;;;;5093106;28;19931;-72
2023/06/13 01:08:00;;;;;;;10.15;6.55;;;20.00;51.60;;;;;;5076735;28;20044;-71
2023/06/13 01:10:29;;;;;;;9.98;6.70;;;20.00;51.80;;;;;;5065103;28;20047;-71
2023/06/13 01:13:18;;;;;;;7.72;6.85;;;20.00;52.00;;;;;;5064975;28;20097;-72
2023/06/13 01:15:53;;;;;;;9.27;7.05;;;20.00;52.20;;;;;;5069065;28;20047;-73
2023/06/13 01:18:24;;;;;;;9.60;7.43;;;20.00;52.20;;;;;;5092463;28;20780;-71
2023/06/13 01:20:56;;;;;;;10.75;7.18;;;19.90;52.30;;;;;;5092740;28;20044;-71
2023/06/13 01:24:08;;;;;;;8.93;7.10;;;19.90;52.20;;;;;;5073012;28;20044;-72
2023/06/13 01:26:46;;;;;;;8.02;6.85;;;19.80;52.50;;;;;;5087985;28;20055;-71
2023/06/13 01:29:13;;;;;;;8.93;7.13;;;19.80;52.50;;;;;;5064915;28;21720;-71
2023/06/13 01:31:41;;;;;;;10.88;7.35;;;19.80;52.60;;;;;;5089515;28;20051;-70
2023/06/13 01:34:07;;;;;;;7.90;6.68;;;19.70;52.80;;;;;;5089870;28;20055;-73
2023/06/13 01:36:34;;;;;;;8.30;6.72;;;19.70;52.90;;;;;;5093042;28;20044;-72
2023/06/13 01:39:00;;;;;;;9.75;7.57;;;19.70;53.10;;;;;;5077709;28;20505;-70
2023/06/13 01:41:26;;;;;;;8.82;6.63;;;19.70;53.10;;;;;;5062020;28;20052;-72
2023/06/13 01:43:52;;;;;;;10.50;6.93;;;19.60;53.20;;;;;;5084857;28;20136;-70
2023/06/13 01:46:26;;;;;;;11.25;6.80;;;19.60;53.30;;;;;;5089091;28;20749;-71
2023/06/13 01:49:37;;;;;;;12.70;6.97;;;19.60;53.60;;;;;;5065177;28;20047;-71
2023/06/13 01:52:27;;;;;;;12.63;7.45;;;19.50;53.60;;;;;;5065213;28;20056;-72
2023/06/13 01:55:02;;;;;;;11.30;6.63;;;19.50;53.90;;;;;;5085819;28;20039;-72
2023/06/13 01:57:33;;;;;;;10.60;6.82;;;19.40;53.90;;;;;;5090016;28;20043;-72
2023/06/13 02:00:00;;;;;;;10.73;6.63;;;19.40;54.10;;;;;;5090050;28;20067;-71
2023/06/13 02:02:26;;;;;;;8.88;6.50;;;19.40;54.20;;;;;;5078855;28;20039;-71
2023/06/13 02:04:54;;;;;;;11.50;7.10;;;19.30;54.40;;;;;;5110004;27;20061;-71
2023/06/13 02:07:20;;;;;;;10.32;6.75;;;19.30;54.40;;;;;;5084096;28;20138;-71
2023/06/13 02:09:46;;;;;;;6.85;6.15;;;19.30;54.70;;;;;;5099899;28;20043;-70
2023/06/13 02:12:12;;;;;;;11.32;6.88;;;19.20;54.80;;;;;;5079484;28;20044;-70
2023/06/13 02:14:38;;;;;;;7.30;6.40;;;19.20;54.90;;;;;;5086496;28;20049;-72
2023/06/13 02:17:05;;;;;;;14.43;6.53;;;19.10;54.90;;;;;;5083001;28;20507;-71
2023/06/13 02:19:30;;;;;;;10.07;6.97;;;19.10;55.10;;;;;;5071283;28;20060;-70
2023/06/13 02:21:56;;;;;;;8.75;6.50;;;19.10;55.20;;;;;;5073403;28;20050;-72
2023/06/13 02:24:22;;;;;;;9.68;6.32;;;19.10;55.40;;;;;;5096448;28;20088;-70
2023/06/13 02:26:48;;;;;;;8.27;6.35;;;19.10;55.60;;;;;;5097736;28;20059;-71
2023/06/13 02:29:13;;;;;;;9.55;6.60;;;19.00;55.60;;;;;;5067640;28;20047;-71
2023/06/13 02:31:41;;;;;;;10.57;6.38;;;19.00;55.70;;;;;;5074604;28;20036;-71
2023/06/13 02:34:07;;;;;;;8.70;6.38;;;19.00;55.90;;;;;;5095669;28;20156;-70
2023/06/13 02:36:33;;;;;;;12.80;6.70;;;19.00;56.00;;;;;;5078817;28;20088;-72
2023/06/13 02:39:02;;;;;;;10.60;6.28;;;19.00;56.10;;;;;;5091463;27;20075;-71
2023/06/13 02:41:28;;;;;;;10.52;6.05;;;18.90;56.20;;;;;;5086298;28;20085;-71
2023/06/13 02:43:53;;;;;;;7.97;6.07;;;18.80;56.30;;;;;;5096756;28;20052;-71
2023/06/13 02:46:19;;;;;;;8.32;6.03;;;18.80;56.40;;;;;;5103894;27;20048;-71
2023/06/13 02:48:45;;;;;;;9.95;6.28;;;18.80;56.50;;;;;;5067241;28;20078;-71
2023/06/13 02:51:10;;;;;;;8.63;6.47;;;18.80;56.70;;;;;;5071812;28;20123;-71
2023/06/13 02:53:36;;;;;;;7.70;6.13;;;18.70;56.80;;;;;;5093128;28;20035;-72
2023/06/13 02:56:06;;;;;;;10.32;6.30;;;18.70;57.00;;;;;;5076513;28;20154;-71
2023/06/13 02:58:35;;;;;;;9.40;6.30;;;18.60;57.20;;;;;;5070655;28;20056;-70
2023/06/13 03:01:00;;;;;;;7.57;6.25;;;18.70;57.20;;;;;;5064224;28;20039;-70
2023/06/13 03:03:26;;;;;;;6.78;6.07;;;18.60;57.30;;;;;;5088150;28;20044;-71
2023/06/13 03:05:56;;;;;;;10.07;5.95;;;18.60;57.30;;;;;;5076342;28;20043;-70
2023/06/13 03:08:22;;;;;;;7.80;6.53;;;18.50;57.30;;;;;;5086416;28;20096;-70
2023/06/13 03:10:51;;;;;;;9.35;6.10;;;18.50;57.50;;;;;;5070288;28;20043;-70
2023/06/13 03:13:18;;;;;;;7.22;5.85;;;18.50;57.60;;;;;;5082723;28;20571;-71
2023/06/13 03:15:45;;;;;;;9.60;6.95;;;18.50;57.60;;;;;;5086421;28;20088;-72
2023/06/13 03:18:11;;;;;;;;;;;18.50;57.70;;;;;;5092000;28;20044;-71
2023/06/13 03:20:37;;;;;;;9.15;5.70;;;18.40;58.10;;;;;;5095844;28;20435;-71
2023/06/13 03:23:03;;;;;;;8.45;6.20;;;18.40;57.70;;;;;;5077197;28;20040;-70
2023/06/13 03:25:29;;;;;;;9.80;6.22;;;18.40;57.90;;;;;;5076023;28;20075;-71
2023/06/13 03:27:55;;;;;;;9.13;5.90;;;18.40;58.10;;;;;;5064021;28;20063;-71
2023/06/13 03:30:21;;;;;;;9.50;6.60;;;18.30;58.20;;;;;;5090199;28;20044;-71
2023/06/13 03:32:47;;;;;;;9.00;6.00;;;18.40;58.30;;;;;;5066009;28;20133;-71
2023/06/13 03:35:13;;;;;;;9.30;5.70;;;18.30;58.50;;;;;;5072207;28;20075;-71
2023/06/13 03:37:39;;;;;;;9.10;5.93;;;18.30;58.60;;;;;;5086082;28;21113;-71
2023/06/13 03:40:05;;;;;;;8.55;5.50;;;18.30;58.60;;;;;;5077407;28;20051;-72
2023/06/13 03:42:31;;;;;;;9.70;5.80;;;18.30;58.80;;;;;;5087278;28;20050;-70
2023/06/13 03:44:57;;;;;;;8.80;6.38;;;18.30;58.90;;;;;;5083439;28;20035;-71
2023/06/13 03:47:22;;;;;;;9.18;5.68;;;18.30;59.00;;;;;;5090133;28;20096;-71
2023/06/13 03:49:48;;;;;;;6.22;5.40;;;18.20;59.00;;;;;;5090900;28;20059;-71
2023/06/13 03:52:13;;;;;;;7.88;5.70;;;18.20;59.20;;;;;;5071495;28;20047;-71
2023/06/13 03:54:39;;;;;;;9.10;5.60;;;18.20;59.20;;;;;;5085093;28;20117;-70
2023/06/13 03:57:06;;;;;;;8.73;5.65;;;18.20;59.30;;;;;;5089972;28;20071;-70
2023/06/13 03:59:33;;;;;;;6.45;5.55;;;18.20;59.40;;;;;;5070770;28;20119;-71
2023/06/13 04:01:59;;;;;;;9.65;5.78;;;18.20;59.40;;;;;;5068569;28;20491;-72
2023/06/13 04:04:26;;;;;;;8.77;5.28;;;18.20;59.60;;;;;;5089907;28;20044;-71
2023/06/13 04:06:53;;;;;;;7.70;5.35;;;18.20;59.70;;;;;;5089456;28;20123;-70
2023/06/13 04:09:19;;;;;;;8.82;5.75;;;18.20;59.80;;;;;;5088970;28;20186;-71
2023/06/13 04:11:44;;;;;;;9.73;5.47;;;18.20;59.90;;;;;;5074231;28;20055;-70
2023/06/13 04:14:10;;;;;;;7.20;5.10;;;18.20;59.90;;;;;;5074817;28;20097;-71
2023/06/13 04:16:36;;;;;;;7.75;5.45;;;18.20;59.90;;;;;;5075305;28;20047;-70
2023/06/13 04:19:01;;;;;;;9.30;5.22;;;18.30;60.00;;;;;;5093478;28;20039;-70
2023/06/13 04:21:28;;;;;;;8.23;5.18;;;18.30;60.30;;;;;;5095131;28;20044;-70
2023/06/13 04:23:53;;;;;;;7.45;5.18;;;18.40;60.20;;;;;;5088860;28;20082;-70
2023/06/13 04:26:20;;;;;;;7.13;5.15;;;18.40;60.10;;;;;;5092877;28;20119;-69
2023/06/13 04:28:47;;;;;;;6.50;5.20;;;18.40;60.10;;;;;;5082501;28;20586;-70
2023/06/13 04:31:14;;;;;;;7.60;5.35;;;18.40;60.10;;;;;;5101624;27;20051;-70
2023/06/13 04:33:41;;;;;;;6.75;4.93;;;18.50;60.10;;;;;;5106160;27;20039;-70
2023/06/13 04:36:08;;;;;;;8.98;5.18;;;18.50;60.10;;;;;;5091128;28;20056;-70
2023/06/13 04:38:35;;;;;;;10.70;4.93;;;18.60;60.20;;;;;;5077436;28;20526;-71
2023/06/13 04:41:02;;;;;;;7.75;5.40;;;18.60;60.10;;;;;;5084444;28;20364;-70
2023/06/13 04:43:34;;;;;;;8.35;5.25;;;18.60;60.10;;;;;;5095634;28;20094;-69
2023/06/13 04:46:03;;;;;;;8.93;5.20;;;18.60;59.90;;;;;;5069675;28;20047;-71
2023/06/13 04:48:30;;;;;;;10.60;5.00;;;18.60;60.00;;;;;;5074543;28;20078;-70
2023/06/13 04:50:58;;;;;;;8.13;5.57;;;18.60;60.10;;;;;;5073634;28;21156;-69
2023/06/13 04:53:29;;;;;;;7.45;5.60;;;18.60;60.10;;;;;;5078213;28;20557;-69
2023/06/13 04:55:55;;;;;;;7.30;5.18;;;18.70;60.50;;;;;;5094935;28;20445;-70
2023/06/13 04:58:23;;;;;;;7.28;5.00;;;18.70;60.50;;;;;;5098931;27;20102;-69
2023/06/13 05:00:50;;;;;;;6.78;5.13;;;18.70;60.40;;;;;;5069957;28;20122;-70
2023/06/13 05:03:20;;;;;;;8.00;5.25;;;18.70;60.50;;;;;;5086492;28;20058;-71
2023/06/13 05:05:46;;;;;;;11.98;5.40;;;18.80;60.50;;;;;;5084326;28;20079;-70
2023/06/13 05:08:13;;;;;;;10.23;5.35;;;18.80;60.40;;;;;;5083592;28;20058;-70
2023/06/13 05:10:41;;;;;;;8.65;5.38;;;18.80;60.50;;;;;;5067931;28;20108;-70
2023/06/13 05:13:07;;;;;;;8.32;5.22;;;18.80;60.50;;;;;;5082945;28;20130;-71
2023/06/13 05:15:33;;;;;;;8.48;4.97;;;18.80;60.70;;;;;;5065175;28;20526;-70
2023/06/13 05:17:58;;;;;;;11.43;5.07;;;18.80;60.80;;;;;;5089073;28;20471;-70
2023/06/13 05:20:26;;;;;;;9.10;5.03;;;18.80;60.50;;;;;;5096765;28;20043;-70
2023/06/13 05:22:56;;;;;;;;;;;18.90;60.40;;;;;;5086978;28;20086;-70
2023/06/13 05:25:21;;;;;;;9.38;5.20;;;18.90;60.40;;;;;;5073570;28;19955;-70
2023/06/13 05:27:47;;;;;;;6.82;5.07;;;18.90;60.50;;;;;;5072960;28;20185;-71
2023/06/13 05:30:13;;;;;;;9.43;5.13;;;19.00;60.70;;;;;;5082918;28;20048;-70
2023/06/13 05:32:41;;;;;;;12.20;5.15;;;19.10;60.50;;;;;;5065675;28;20043;-71
2023/06/13 05:35:10;;;;;;;8.40;4.95;;;19.10;60.40;;;;;;5068430;28;20044;-71
2023/06/13 05:37:38;;;;;;;7.82;5.43;;;19.20;60.60;;;;;;5083887;27;20102;-71
2023/06/13 05:40:10;;;;;;;8.32;5.57;;;19.30;60.70;;;;;;5075501;28;20051;-74
2023/06/13 05:42:37;;;;;;;8.07;4.70;;;19.40;60.70;;;;;;5072000;28;20042;-72
2023/06/13 05:45:04;;;;;;;17.85;5.18;;;19.40;60.30;;;;;;5087604;28;20074;-73
2023/06/13 05:47:30;;;;;;;7.28;4.82;;;19.50;60.20;;;;;;5088533;28;20097;-73
2023/06/13 05:49:56;;;;;;;7.20;4.50;;;19.50;60.20;;;;;;5073857;28;20055;-72
2023/06/13 05:52:22;;;;;;;8.50;4.90;;;19.60;60.00;;;;;;5062017;28;20081;-73
2023/06/13 05:54:48;;;;;;;13.30;5.00;;;19.70;59.90;;;;;;5070065;28;20043;-72
2023/06/13 05:57:15;;;;;;;7.30;4.90;;;19.70;60.20;;;;;;5095859;27;20055;-74
2023/06/13 05:59:40;;;;;;;9.02;4.55;;;19.80;59.30;;;;;;5108531;27;20516;-72
2023/06/13 06:02:09;;;;;;;7.18;4.22;;;19.80;59.20;;;;;;5073329;28;20039;-71
2023/06/13 06:04:35;;;;;;;10.15;4.40;;;19.80;59.30;;;;;;5091960;28;20052;-72
2023/06/13 06:07:01;;;;;;;5.22;3.88;;;20.00;58.90;;;;;;5075778;28;20040;-72
2023/06/13 06:09:26;;;;;;;7.78;4.07;;;20.00;58.50;;;;;;5070673;28;20094;-73
2023/06/13 06:11:52;;;;;;;6.43;4.40;;;20.10;58.00;;;;;;5088549;28;20138;-72
2023/06/13 06:14:18;;;;;;;7.13;4.22;;;20.20;57.70;;;;;;5089397;28;20646;-72
2023/06/13 06:16:44;;;;;;;7.05;4.00;;;20.20;57.80;;;;;;5087463;28;20499;-72
2023/06/13 06:19:09;;;;;;;7.60;4.00;;;20.40;58.20;;;;;;5074857;28;20059;-72
2023/06/13 06:21:35;;;;;;;10.80;4.55;;;20.40;57.80;;;;;;5087481;27;20189;-71
2023/06/13 06:24:01;;;;;;;8.15;4.72;;;20.50;57.60;;;;;;5079345;27;20130;-72
2023/06/13 06:26:27;;;;;;;10.10;4.63;;;20.60;57.20;;;;;;5079437;27;20050;-72
2023/06/13 06:28:52;;;;;;;7.35;4.32;;;20.60;56.90;;;;;;5067682;28;20040;-72
2023/06/13 06:31:18;;;;;;;9.75;4.18;;;20.60;56.70;;;;;;5077407;28;20044;-70
2023/06/13 06:33:44;;;;;;;6.18;3.95;;;20.60;56.70;;;;;;5089166;27;20036;-72
2023/06/13 06:36:13;;;;;;;6.28;3.88;;;20.70;56.50;;;;;;5073729;28;20035;-72
2023/06/13 06:38:40;;;;;;;5.68;4.13;;;20.70;56.90;;;;;;5071478;28;20043;-73
2023/06/13 06:41:06;;;;;;;7.57;4.00;;;20.70;56.50;;;;;;5083810;27;20042;-72
2023/06/13 06:43:32;;;;;;;9.95;4.30;;;20.80;56.20;;;;;;5110449;27;20082;-72
2023/06/13 06:45:58;;;;;;;6.53;4.00;;;20.90;56.30;;;;;;5105243;27;20123;-72
2023/06/13 06:48:23;;;;;;;8.63;4.10;;;20.90;55.60;;;;;;5085599;28;20440;-72
2023/06/13 06:50:49;;;;;;;7.53;3.97;;;21.00;56.00;;;;;;5090288;27;20056;-72
2023/06/13 06:53:15;;;;;;;8.48;4.30;;;21.00;55.90;;;;;;5102396;27;20048;-72
2023/06/13 06:55:40;;;;;;;10.25;4.45;;;21.10;56.30;;;;;;5071504;28;20043;-73
2023/06/13 06:58:06;;;;;;;6.20;4.28;;;21.20;56.70;;;;;;5064628;28;20050;-72
2023/06/13 07:00:32;;;;;;;6.20;4.10;;;21.30;56.70;;;;;;5068993;28;20040;-72
2023/06/13 07:02:58;;;;;;;7.20;4.57;;;21.30;56.60;;;;;;5087233;28;20075;-71
2023/06/13 07:05:23;;;;;;;5.60;4.25;;;21.40;56.70;;;;;;5070226;28;20047;-72
2023/06/13 07:07:49;;;;;;;6.20;4.20;;;21.50;56.80;;;;;;5073500;28;20051;-72
2023/06/13 07:10:15;;;;;;;9.15;4.50;;;21.50;56.50;;;;;;5061974;28;20052;-74
2023/06/13 07:12:41;;;;;;;12.07;4.82;;;21.60;56.40;;;;;;5063312;28;20104;-73
2023/06/13 07:15:07;;;;;;;8.52;4.60;;;21.60;56.20;;;;;;5064193;28;20157;-71
2023/06/13 07:17:33;;;;;;;8.90;4.50;;;21.60;56.20;;;;;;5085887;28;20104;-72
2023/06/13 07:19:58;;;;;;;8.52;4.80;;;21.50;56.40;;;;;;5066140;28;20497;-74
2023/06/13 07:22:25;;;;;;;7.05;4.75;;;21.50;56.20;;;;;;5063749;28;20044;-72
2023/06/13 07:24:50;;;;;;;8.32;5.28;;;21.50;56.40;;;;;;5068149;28;20505;-73
2023/06/13 07:27:16;;;;;;;9.32;4.68;;;21.50;56.40;;;;;;5109843;27;20048;-71
2023/06/13 07:29:42;;;;;;;8.98;4.70;;;21.60;57.00;;;;;;5057366;28;20047;-72
2023/06/13 07:32:08;;;;;;;8.57;4.93;;;21.70;56.60;;;;;;5071423;28;20075;-72
2023/06/13 07:34:34;;;;;;;7.70;5.10;;;21.70;56.40;;;;;;5087816;28;20428;-71
2023/06/13 07:36:59;;;;;;;11.48;5.40;;;21.70;56.50;;;;;;5088891;28;20078;-70
2023/06/13 07:39:25;;;;;;;8.45;5.70;;;21.80;55.90;;;;;;5075894;28;20071;-73
2023/06/13 07:41:51;;;;;;;10.57;5.10;;;21.90;55.50;;;;;;5069114;28;20103;-74
2023/06/13 07:44:17;;;;;;;9.35;5.45;;;21.90;55.20;;;;;;5076389;28;20099;-74
2023/06/13 07:46:44;;;;;;;8.27;5.25;;;21.80;55.00;;;;;;5081069;27;20085;-74
2023/06/13 07:49:09;;;;;;;8.63;5.28;;;21.90;55.50;;;;;;5088825;27;20051;-73
2023/06/13 07:51:35;;;;;;;9.18;5.68;;;22.00;55.10;;;;;;5099091;27;20647;-73
2023/06/13 07:54:01;;;;;;;9.05;5.30;;;22.00;55.30;;;;;;5082263;28;20070;-73
2023/06/13 07:56:26;;;;;;;7.00;5.13;;;22.10;55.50;;;;;;5076069;28;20046;-72
2023/06/13 07:58:53;;;;;;;10.45;5.22;;;22.10;55.00;;;;;;5070506;28;20564;-72
2023/06/13 08:01:21;;;;;;;7.05;5.35;;;22.20;55.80;;;;;;5092961;28;20132;-73
2023/06/13 08:03:46;;;;;;;8.30;5.38;;;22.30;55.50;;;;;;5076641;27;20051;-73
2023/06/13 08:06:12;;;;;;;9.55;5.47;;;22.40;55.40;;;;;;5093228;27;20047;-72
2023/06/13 08:08:38;;;;;;;8.13;5.10;;;22.50;55.20;;;;;;5077268;28;20051;-71
2023/06/13 08:11:03;;;;;;;8.45;5.30;;;22.50;55.30;;;;;;5077058;28;20048;-72
2023/06/13 08:13:29;;;;;;;8.85;4.97;;;22.60;54.50;;;;;;5077074;28;20043;-72
2023/06/13 08:15:55;;;;;;;9.00;5.25;;;22.80;54.20;;;;;;5094205;27;20040;-71
2023/06/13 08:18:20;;;;;;;8.85;5.30;;;22.80;54.90;;;;;;5090810;28;20376;-72
2023/06/13 08:20:48;;;;;;;8.32;5.43;;;22.90;55.00;;;;;;5092897;28;20804;-73
2023/06/13 08:23:14;;;;;;;9.15;5.40;;;23.00;54.60;;;;;;5107207;27;20040;-74
2023/06/13 08:25:41;;;;;;;12.50;5.15;;;23.00;54.10;;;;;;5093043;28;20039;-75
2023/06/13 08:28:07;;;;;;;10.07;5.50;;;23.10;54.40;;;;;;5079312;28;20070;-71
2023/06/13 08:30:33;;;;;;;7.88;5.40;;;23.20;53.60;;;;;;5079628;28;20193;-73
2023/06/13 08:33:02;;;;;;;7.93;4.80;;;23.30;53.10;;;;;;5074600;28;20043;-74
2023/06/13 08:35:28;;;;;;;10.45;5.30;;;23.30;53.00;;;;;;5069245;28;20050;-72
2023/06/13 08:37:54;;;;;;;8.77;4.82;;;23.30;52.30;;;;;;5103064;27;20048;-72
2023/06/13 08:40:20;;;;;;;6.78;4.60;;;23.40;52.40;;;;;;5093041;28;20050;-72
2023/06/13 08:42:46;;;;;;;10.63;4.70;;;23.40;52.40;;;;;;5110693;27;20073;-73
2023/06/13 08:45:13;;;;;;;5.83;4.60;;;23.60;52.40;;;;;;5076433;28;20107;-71
2023/06/13 08:47:40;;;;;;;10.05;4.88;;;23.70;51.80;;;;;;5083854;28;21792;-72
2023/06/13 08:50:11;;;;;;;;;;;23.80;51.90;;;;;;5091662;28;20056;-72
2023/06/13 08:52:41;;;;;;;7.90;4.60;;;23.90;52.30;;;;;;5095067;28;19976;-72
2023/06/13 08:55:12;;;;;;;9.27;4.55;;;23.90;51.30;;;;;;5073456;28;20039;-72
2023/06/13 08:57:39;;;;;;;6.65;4.30;;;24.00;52.30;;;;;;5068703;28;20046;-73
2023/06/13 09:00:09;;;;;;;;;;;24.10;51.60;;;;;;5075957;28;20055;-71
2023/06/13 09:02:36;;;;;;;10.52;4.60;;;24.20;51.20;;;;;;5081995;28;19924;-71
2023/06/13 09:05:03;;;;;;;6.05;4.38;;;24.30;51.60;;;;;;5091582;28;20050;-72
2023/06/13 09:07:31;;;;;;;6.40;4.30;;;24.40;51.70;;;;;;5090207;28;20498;-72
2023/06/13 09:09:59;;;;;;;7.85;4.07;;;24.40;51.40;;;;;;5065287;28;21107;-73
2023/06/13 09:12:25;;;;;;;10.50;4.60;;;24.50;51.80;;;;;;5078354;28;20063;-69
2023/06/13 09:14:52;;;;;;;6.78;4.47;;;24.60;51.20;;;;;;5098928;28;20031;-72
2023/06/13 09:17:18;;;;;;;;;;;24.60;51.00;;;;;;5080511;28;20120;-72
2023/06/13 09:19:44;;;;;;;5.73;3.90;;;24.70;51.60;;;;;;5075906;28;20022;-72
2023/06/13 09:22:10;;;;;;;8.95;4.22;;;24.80;50.80;;;;;;5079234;28;20054;-69
2023/06/13 09:24:36;;;;;;;5.63;4.18;;;24.90;51.00;;;;;;5097997;28;20071;-68
2023/06/13 09:27:03;;;;;;;4.93;4.03;;;25.00;51.00;;;;;;5079594;28;20043;-71
2023/06/13 09:29:35;;;;;;;10.27;4.22;;;25.10;50.50;;;;;;5074741;28;20046;-72
2023/06/13 09:32:02;;;;;;;7.70;4.32;;;25.20;50.30;;;;;;5083444;28;20036;-73
2023/06/13 09:34:29;;;;;;;;;;;25.30;49.60;;;;;;5069921;28;21154;-73
2023/06/13 09:36:58;;;;;;;6.60;4.38;;;25.30;50.40;;;;;;5075745;28;20291;-72
2023/06/13 09:39:26;;;;;;;6.43;4.55;;;25.40;49.50;;;;;;5091058;28;20117;-72
2023/06/13 09:41:57;;;;;;;7.45;4.30;;;25.40;48.30;;;;;;5075661;28;20247;-72
2023/06/13 09:44:24;;;;;;;6.47;3.88;;;25.40;48.40;;;;;;5068527;28;20083;-73
2023/06/13 09:46:53;;;;;;;;;;;25.50;47.80;;;;;;5083336;28;20040;-71
2023/06/13 09:49:19;;;;;;;8.27;4.43;;;25.50;48.30;;;;;;5103455;27;20438;-72
2023/06/13 09:51:46;;;;;;;11.30;5.10;;;25.50;49.30;;;;;;5058447;28;20052;-72
2023/06/13 09:54:13;;;;;;;9.82;4.50;;;25.70;49.10;;;;;;5092942;28;20126;-71
2023/06/13 09:56:43;;;;;;;6.35;4.40;;;25.80;47.80;;;;;;5071613;28;20050;-73
2023/06/13 09:59:16;;;;;;;7.97;4.18;;;25.80;47.40;;;;;;5092555;28;20044;-73
2023/06/13 10:01:42;;;;;;;7.50;4.40;;;25.90;46.70;;;;;;5063286;28;21792;-71
2023/06/13 10:04:09;;;;;;;5.88;4.32;;;25.90;46.60;;;;;;5070667;28;20055;-72
2023/06/13 10:06:36;;;;;;;9.02;4.75;;;25.90;47.10;;;;;;5065762;28;20046;-73
2023/06/13 10:09:02;;;;;;;8.23;4.25;;;26.00;48.30;;;;;;5075049;28;20044;-73
2023/06/13 10:11:31;;;;;;;10.52;4.65;;;26.20;48.30;;;;;;5093803;28;20415;-72
2023/06/13 10:14:11;;;;;;;9.35;4.78;;;26.30;47.60;;;;;;5093829;28;20043;-72
2023/06/13 10:16:42;;;;;;;7.22;5.03;;;26.40;46.10;;;;;;5087556;28;20521;-73
2023/06/13 10:19:17;;;;;;;8.30;4.43;;;26.40;45.40;;;;;;5075295;28;20138;-72
2023/06/13 10:21:43;;;;;;;8.65;5.00;;;26.40;45.00;;;;;;5073862;28;20092;-71
2023/06/13 10:24:12;;;;;;;5.47;4.57;;;26.30;45.20;;;;;;5081177;28;20044;-74
2023/06/13 10:26:43;;;;;;;7.78;4.82;;;26.40;44.80;;;;;;5081352;28;20402;-74
2023/06/13 10:29:36;;;;;;;8.43;4.72;;;26.40;43.60;;;;;;5083475;28;20075;-72
2023/06/13 10:32:15;;;;;;;6.93;4.55;;;26.50;44.60;;;;;;5081287;28;20100;-73
2023/06/13 10:34:56;;;;;;;6.68;4.35;;;26.50;44.40;;;;;;5096047;28;20534;-72
2023/06/13 10:37:53;;;;;;;6.38;4.68;;;26.50;43.40;;;;;;5099104;28;20087;-73
2023/06/13 10:40:40;;;;;;;8.43;5.03;;;26.60;45.40;;;;;;5100795;28;20075;-73
2023/06/13 10:43:23;;;;;;;9.90;4.60;;;26.70;45.20;;;;;;5074200;28;20055;-71
2023/06/13 10:45:52;;;;;;;6.43;4.25;;;26.80;44.40;;;;;;5068309;27;20043;-71
2023/06/13 10:48:34;;;;;;;7.47;4.55;;;26.90;43.50;;;;;;5094905;28;20047;-71
2023/06/13 10:50:59;;;;;;;5.45;4.82;;;27.00;43.90;;;;;;5073572;28;20456;-73
2023/06/13 10:53:27;;;;;;;6.90;4.63;;;27.00;43.40;;;;;;5078636;28;20051;-71
2023/06/13 10:55:59;;;;;;;7.72;4.07;;;27.00;42.10;;;;;;5093350;28;20569;-71
2023/06/13 10:58:25;;;;;;;5.80;4.10;;;27.00;42.40;;;;;;5097130;28;20047;-73
2023/06/13 11:00:51;;;;;;;5.68;4.55;;;26.90;42.30;;;;;;5090844;28;20066;-73
2023/06/13 11:03:17;;;;;;;7.47;4.65;;;27.00;43.80;;;;;;5067926;27;20048;-69
2023/06/13 11:05:49;;;;;;;8.52;4.93;;;27.10;43.60;;;;;;5089606;28;20490;-69
2023/06/13 11:08:19;;;;;;;7.05;4.85;;;27.10;43.20;;;;;;5102177;27;20137;-71
2023/06/13 11:10:46;;;;;;;5.70;4.70;;;27.20;42.30;;;;;;5094564;28;20078;-73
2023/06/13 11:13:18;;;;;;;6.43;4.60;;;27.40;41.50;;;;;;5074651;28;20047;-71
2023/06/13 11:15:44;;;;;;;5.75;4.78;;;27.40;40.90;;;;;;5082284;27;20564;-71
2023/06/13 11:18:09;;;;;;;6.93;4.57;;;27.50;43.20;;;;;;5093105;27;20052;-69
2023/06/13 11:21:03;;;;;;;7.60;4.13;;;27.60;42.90;;;;;;5092521;28;20093;-71
2023/06/13 11:23:35;;;;;;;7.20;4.40;;;27.60;42.00;;;;;;5087175;28;20063;-71
2023/06/13 11:26:01;;;;;;;7.25;4.45;;;27.60;41.30;;;;;;5093905;28;20514;-71
2023/06/13 11:28:26;;;;;;;5.87;4.20;;;27.60;41.60;;;;;;5070815;28;20047;-70
2023/06/13 11:30:54;;;;;;;5.73;4.30;;;27.60;41.60;;;;;;5087695;28;20383;-71
2023/06/13 11:33:21;;;;;;;8.32;4.80;;;27.70;42.50;;;;;;5067463;28;20140;-71
2023/06/13 11:35:54;;;;;;;7.00;5.00;;;27.80;42.60;;;;;;5093389;28;20051;-70
2023/06/13 11:38:40;;;;;;;8.05;4.85;;;28.00;41.70;;;;;;5089776;28;20051;-72
2023/06/13 11:41:06;;;;;;;5.82;4.50;;;28.00;42.20;;;;;;5094286;28;20465;-71
2023/06/13 11:43:34;;;;;;;6.53;4.70;;;28.20;43.20;;;;;;5074620;28;20057;-71
2023/06/13 11:46:01;;;;;;;9.50;4.82;;;28.20;41.70;;;;;;5075272;28;20047;-70
2023/06/13 11:48:27;;;;;;;7.30;4.43;;;28.20;40.80;;;;;;5063270;28;20116;-70
2023/06/13 11:51:07;;;;;;;6.70;4.37;;;28.20;40.00;;;;;;5069894;28;20055;-71
2023/06/13 11:53:32;;;;;;;7.85;4.40;;;28.20;40.40;;;;;;5084268;28;20040;-71
2023/06/13 11:56:06;;;;;;;6.63;4.90;;;28.20;41.00;;;;;;5089170;28;20100;-72
2023/06/13 11:58:31;;;;;;;8.70;4.72;;;28.30;41.80;;;;;;5092187;28;20086;-71
2023/06/13 12:00:58;;;;;;;5.37;4.40;;;28.30;40.50;;;;;;5089971;27;20126;-71
2023/06/13 12:03:24;;;;;;;9.00;4.57;;;28.40;40.80;;;;;;5074580;28;20047;-72
2023/06/13 12:05:56;;;;;;;10.20;4.73;;;28.50;41.20;;;;;;5062062;28;20501;-70
2023/06/13 12:08:22;;;;;;;7.55;4.82;;;28.60;40.60;;;;;;5089292;28;21235;-69
2023/06/13 12:10:48;;;;;;;7.47;4.50;;;28.70;40.80;;;;;;5067164;28;20043;-72
2023/06/13 12:13:17;;;;;;;6.13;4.80;;;28.70;40.80;;;;;;5060895;28;21232;-71
2023/06/13 12:15:43;;;;;;;6.13;5.05;;;28.70;40.90;;;;;;5071620;28;20126;-71
2023/06/13 12:18:09;;;;;;;7.05;4.20;;;28.80;40.20;;;;;;5079262;28;20091;-73
2023/06/13 12:20:51;;;;;;;10.90;4.73;;;28.90;39.80;;;;;;5089195;28;20059;-72
2023/06/13 12:23:17;;;;;;;6.57;4.50;;;28.80;39.40;;;;;;5091587;28;21177;-71
2023/06/13 12:25:44;;;;;;;9.00;4.90;;;28.80;39.80;;;;;;5091218;27;20391;-70
2023/06/13 12:28:12;;;;;;;7.70;4.55;;;28.80;39.40;;;;;;5084710;28;20525;-72
2023/06/13 12:30:41;;;;;;;7.88;4.45;;;28.90;38.80;;;;;;5089670;28;20044;-71
2023/06/13 12:33:08;;;;;;;7.55;4.55;;;29.00;39.10;;;;;;5084378;27;20062;-72
2023/06/13 12:35:33;;;;;;;7.68;4.28;;;29.10;39.20;;;;;;5092943;28;20126;-70
2023/06/13 12:38:02;;;;;;;4.97;4.47;;;29.20;39.00;;;;;;5091205;28;20039;-71
2023/06/13 12:40:38;;;;;;;6.68;4.40;;;29.40;40.00;;;;;;5076475;28;20082;-71
2023/06/13 12:43:04;;;;;;;5.20;4.70;;;29.40;39.20;;;;;;5074837;28;20764;-71
2023/06/13 12:45:31;;;;;;;7.90;4.32;;;29.40;39.10;;;;;;5091735;28;20047;-72
2023/06/13 12:47:57;;;;;;;7.45;4.32;;;29.40;39.20;;;;;;5070027;27;20062;-71
2023/06/13 12:50:24;;;;;;;5.30;4.15;;;29.40;40.40;;;;;;5059623;28;20053;-71
2023/06/13 12:52:59;;;;;;;6.80;4.88;;;29.50;39.10;;;;;;5059760;28;20106;-73